Time;durP1;ratioP1;P1;durP2;ratioP2;P2;SDS_P1;SDS_P2;PMS_P1;PMS_P2;Temp;Humidity;BMP_temperature;BMP_pressure;BME280_temperature;BME280_humidity;BME280_pressure;Samples;Min_cycle;Max_cycle;Signal;HPM_P1;HPM_P2
2023/01/31 00:01:17;;;;;;;31.33;11.07;;;;;;;2.59;91.98;102392.22;5068142;28;20082;-58
2023/01/31 00:03:43;;;;;;;26.27;11.27;;;;;;;2.62;92.61;102376.44;5072865;28;20037;-58
2023/01/31 00:06:38;;;;;;;26.88;12.23;;;;;;;2.66;92.51;102380.78;5058750;28;20467;-58
2023/01/31 00:09:06;;;;;;;28.23;11.07;;;;;;;2.62;91.92;102389.56;5057001;28;20032;-57
2023/01/31 00:11:31;;;;;;;28.30;11.60;;;;;;;2.55;92.49;102386.97;5056297;28;20021;-58
2023/01/31 00:13:58;;;;;;;30.15;12.02;;;;;;;2.58;93.06;102397.44;5056158;28;20495;-57
2023/01/31 00:16:25;;;;;;;27.65;11.65;;;;;;;2.61;92.63;102395.69;5056781;28;20127;-57
2023/01/31 00:18:50;;;;;;;30.08;10.93;;;;;;;2.59;93.12;102397.47;5073983;28;20025;-57
2023/01/31 00:21:18;;;;;;;33.80;11.30;;;;;;;2.61;92.79;102407.94;5056030;28;20382;-57
2023/01/31 00:23:45;;;;;;;29.95;10.98;;;;;;;2.55;93.35;102402.72;5055449;28;20856;-58
2023/01/31 00:26:14;;;;;;;30.25;12.15;;;;;;;2.53;93.26;102405.38;5060585;28;20118;-58
2023/01/31 00:28:42;;;;;;;31.23;10.40;;;;;;;2.54;93.45;102404.47;5053765;28;20028;-57
2023/01/31 00:31:08;;;;;;;24.85;12.02;;;;;;;2.55;93.14;102413.22;5035955;28;20036;-58
2023/01/31 00:33:34;;;;;;;29.95;11.60;;;;;;;2.58;93.18;102408.81;5053385;28;20025;-58
2023/01/31 00:36:08;;;;;;;28.73;12.23;;;;;;;2.60;93.51;102406.19;5053794;28;20049;-58
2023/01/31 00:38:34;;;;;;;26.65;11.57;;;;;;;2.61;94.03;102403.56;5035675;28;20019;-58
2023/01/31 00:41:00;;;;;;;31.85;12.35;;;;;;;2.55;93.89;102393.09;5054003;28;20025;-57
2023/01/31 00:43:26;;;;;;;28.45;11.85;;;;;;;2.58;93.70;102394.81;5053210;28;20074;-57
2023/01/31 00:45:52;;;;;;;26.17;11.52;;;;;;;2.48;93.34;102379.13;5053943;28;20021;-58
2023/01/31 00:48:17;;;;;;;28.52;11.68;;;;;;;2.54;93.73;102395.72;5055006;28;20032;-58
2023/01/31 00:50:42;;;;;;;28.85;11.60;;;;;;;2.59;93.94;102386.06;5073453;28;20017;-58
2023/01/31 00:53:08;;;;;;;28.83;12.13;;;;;;;2.54;93.87;102387.84;5073378;28;20542;-58
2023/01/31 00:55:36;;;;;;;26.00;11.52;;;;;;;2.48;93.91;102384.38;5055375;28;20048;-58
2023/01/31 00:58:02;;;;;;;25.35;11.85;;;;;;;2.52;94.03;102389.59;5055288;28;20016;-58
2023/01/31 01:00:28;;;;;;;33.50;12.52;;;;;;;2.50;94.05;102384.38;5072320;28;20539;-57
2023/01/31 01:02:53;;;;;;;30.52;12.43;;;;;;;2.52;93.77;102381.72;5069058;28;20025;-58
2023/01/31 01:05:18;;;;;;;28.20;12.52;;;;;;;2.47;94.31;102376.47;5053896;28;20060;-57
2023/01/31 01:07:44;;;;;;;28.73;12.68;;;;;;;2.54;94.65;102379.97;5053171;28;20021;-57
2023/01/31 01:10:10;;;;;;;33.25;12.75;;;;;;;2.54;94.41;102378.22;5053065;28;20115;-57
2023/01/31 01:12:35;;;;;;;36.45;12.52;;;;;;;2.50;94.71;102360.75;5052985;28;20370;-57
2023/01/31 01:15:01;;;;;;;33.15;12.35;;;;;;;2.45;94.12;102365.13;5052620;28;20036;-57
2023/01/31 01:17:26;;;;;;;27.83;12.52;;;;;;;2.50;94.82;102363.38;5035276;28;20041;-57
2023/01/31 01:19:52;;;;;;;29.08;13.60;;;;;;;2.52;95.07;102356.34;5046237;28;20078;-57
2023/01/31 01:22:17;;;;;;;35.30;13.13;;;;;;;2.50;95.42;102353.72;5049180;28;20098;-57
2023/01/31 01:24:45;;;;;;;33.55;13.68;;;;;;;2.53;94.87;102344.97;5052667;28;20044;-57
2023/01/31 01:27:12;;;;;;;35.70;14.25;;;;;;;2.52;95.28;102342.34;5052945;28;20036;-57
2023/01/31 01:29:38;;;;;;;24.73;13.40;;;;;;;2.56;95.15;102342.31;5048442;28;20083;-57
2023/01/31 01:32:04;;;;;;;25.15;12.60;;;;;;;2.48;94.37;102336.25;5032688;28;20091;-58
2023/01/31 01:34:29;;;;;;;34.85;14.70;;;;;;;2.45;94.80;102339.75;5032552;28;20029;-57
2023/01/31 01:36:55;;;;;;;31.63;14.63;;;;;;;2.52;94.73;102344.97;5039647;28;20033;-57
2023/01/31 01:39:20;;;;;;;30.63;14.68;;;;;;;2.41;94.79;102337.13;5050422;28;20025;-58
2023/01/31 01:41:46;;;;;;;31.67;12.65;;;;;;;2.45;94.30;102346.75;5034380;28;20036;-57
2023/01/31 01:44:45;;;;;;;38.65;14.43;;;;;;;2.50;95.26;102345.84;5030762;28;20025;-58
2023/01/31 01:47:29;;;;;;;30.00;12.60;;;;;;;2.46;94.55;102335.38;5031829;28;20044;-58
2023/01/31 01:50:03;;;;;;;28.92;14.32;;;;;;;2.49;94.80;102337.97;5031148;28;20035;-57
2023/01/31 01:52:32;;;;;;;31.65;13.93;;;;;;;2.38;94.94;102340.66;5031249;28;20029;-57
2023/01/31 01:55:21;;;;;;;29.83;13.60;;;;;;;2.41;95.17;102339.75;5015097;28;20367;-57
2023/01/31 01:57:50;;;;;;;32.70;14.55;;;;;;;2.31;95.20;102324.94;5032353;28;20397;-58
2023/01/31 02:00:20;;;;;;;35.90;14.43;;;;;;;2.38;94.89;102327.53;5038081;28;20074;-58
2023/01/31 02:02:49;;;;;;;39.03;14.05;;;;;;;2.33;95.92;102333.69;5052186;28;20071;-58
2023/01/31 02:05:20;;;;;;;32.47;14.97;;;;;;;2.35;95.62;102322.28;5052173;28;20112;-57
2023/01/31 02:07:46;;;;;;;30.23;14.60;;;;;;;2.24;95.72;102339.88;5052049;28;20539;-57
2023/01/31 02:10:17;;;;;;;36.50;14.95;;;;;;;2.23;96.46;102333.72;5052085;28;20021;-57
2023/01/31 02:12:45;;;;;;;40.42;15.13;;;;;;;2.25;96.62;102344.22;5050897;28;20477;-57
2023/01/31 02:15:10;;;;;;;34.28;15.55;;;;;;;2.20;96.28;102345.97;5049917;28;20028;-57
2023/01/31 02:17:38;;;;;;;38.53;15.73;;;;;;;2.14;96.46;102339.00;5051916;28;20017;-57
2023/01/31 02:20:22;;;;;;;31.65;15.30;;;;;;;2.15;96.76;102351.28;5034406;28;20051;-58
2023/01/31 02:23:11;;;;;;;37.65;15.82;;;;;;;2.24;97.05;102345.13;5051766;28;20810;-57
2023/01/31 02:25:47;;;;;;;37.20;15.82;;;;;;;2.23;97.74;102351.22;5043437;28;20033;-57
2023/01/31 02:28:32;;;;;;;38.53;16.92;;;;;;;2.15;97.51;102353.03;5050773;28;20029;-57
2023/01/31 02:31:00;;;;;;;37.90;17.08;;;;;;;2.17;97.17;102349.50;5046485;28;20018;-58
2023/01/31 02:33:36;;;;;;;36.15;16.23;;;;;;;2.16;97.66;102360.00;5031702;28;20029;-58
2023/01/31 02:36:29;;;;;;;40.28;16.95;;;;;;;2.18;97.67;102351.25;5030606;28;20105;-57
2023/01/31 02:39:00;;;;;;;37.97;16.65;;;;;;;2.17;97.94;102352.13;5031838;28;20025;-58
2023/01/31 02:41:38;;;;;;;36.80;17.17;;;;;;;2.18;97.94;102348.63;5031915;28;20029;-58
2023/01/31 02:47:27;;;;;;;41.33;17.73;;;;;;;2.14;99.03;102340.75;5051380;28;20086;-58
2023/01/31 02:50:03;;;;;;;40.10;18.05;;;;;;;2.19;98.79;102347.75;5049911;28;20021;-58
2023/01/31 02:52:51;;;;;;;43.90;17.50;;;;;;;2.23;98.85;102346.84;5050211;28;20021;-57
2023/01/31 02:58:07;;;;;;;43.22;18.27;;;;;;;2.29;99.10;102345.94;5043572;28;20029;-57
2023/01/31 03:00:39;;;;;;;37.72;19.10;;;;;;;2.22;99.92;102352.97;5048310;28;20048;-58
2023/01/31 03:03:17;;;;;;;49.80;21.15;;;;;;;2.25;100.00;102344.22;5050708;28;20048;-58
2023/01/31 03:05:45;;;;;;;40.80;20.17;;;;;;;2.27;99.92;102345.09;5049914;28;20482;-58
2023/01/31 03:08:21;;;;;;;32.58;19.00;;;;;;;2.28;99.97;102347.69;5051254;28;20025;-58
2023/01/31 03:11:01;;;;;;;43.83;20.85;;;;;;;2.33;100.00;102346.81;5050179;28;20389;-58
2023/01/31 03:14:02;;;;;;;39.42;20.10;;;;;;;2.33;99.97;102338.94;5050896;28;20012;-58
2023/01/31 03:19:26;;;;;;;43.33;20.45;;;;;;;2.24;100.00;102335.47;5051321;28;20047;-58
2023/01/31 03:21:57;;;;;;;41.28;19.65;;;;;;;2.27;100.00;102322.34;5065120;28;20055;-58
2023/01/31 03:24:25;;;;;;;49.03;20.52;;;;;;;2.30;100.00;102331.09;5055451;28;20029;-58
2023/01/31 03:26:52;;;;;;;38.97;20.23;;;;;;;2.25;100.00;102316.22;5053037;28;20040;-57
2023/01/31 03:29:18;;;;;;;43.28;20.10;;;;;;;2.30;100.00;102326.69;5054535;28;20033;-57
2023/01/31 03:32:09;;;;;;;44.25;20.98;;;;;;;2.31;100.00;102307.44;5054146;28;20474;-58
2023/01/31 03:34:34;;;;;;;51.67;21.40;;;;;;;2.30;100.00;102318.84;5054711;28;20033;-57
2023/01/31 03:37:18;;;;;;;36.33;20.25;;;;;;;2.34;100.00;102324.94;5055082;28;20021;-57
2023/01/31 03:40:06;;;;;;;36.08;20.48;;;;;;;2.33;100.00;102315.31;5036973;28;20028;-57
2023/01/31 03:42:40;;;;;;;46.35;23.25;;;;;;;2.37;100.00;102312.66;5055257;28;20474;-57
2023/01/31 03:45:14;;;;;;;44.22;22.17;;;;;;;2.38;100.00;102309.16;5054365;28;20516;-58
2023/01/31 03:47:45;;;;;;;46.35;21.58;;;;;;;2.38;100.00;102309.16;5054474;28;20401;-57
2023/01/31 03:50:33;;;;;;;46.08;22.02;;;;;;;2.35;100.00;102303.91;5054778;28;20492;-58
2023/01/31 03:53:24;;;;;;;47.85;22.98;;;;;;;2.55;100.00;102305.56;5052897;28;20041;-58
2023/01/31 03:56:15;;;;;;;46.75;22.80;;;;;;;2.50;100.00;102293.34;5036316;28;20021;-57
2023/01/31 03:58:47;;;;;;;43.55;22.73;;;;;;;2.40;100.00;102282.88;5047848;28;20086;-58
2023/01/31 04:01:14;;;;;;;42.78;22.55;;;;;;;2.50;100.00;102305.59;5047554;28;20032;-58
2023/01/31 04:03:42;;;;;;;48.38;22.60;;;;;;;2.42;100.00;102291.63;5036044;28;20041;-58
2023/01/31 04:06:10;;;;;;;46.70;21.43;;;;;;;2.44;100.00;102293.38;5054334;28;20025;-58
2023/01/31 04:08:36;;;;;;;49.67;22.70;;;;;;;2.40;100.00;102281.13;5054126;28;20111;-58
2023/01/31 04:11:09;;;;;;;55.10;22.65;;;;;;;2.42;100.00;102295.13;5045334;28;20143;-58
2023/01/31 04:13:35;;;;;;;46.67;23.00;;;;;;;2.47;100.00;102311.75;5041728;28;20029;-58
2023/01/31 04:16:01;;;;;;;46.75;21.65;;;;;;;2.34;100.00;102291.66;5036294;28;20029;-57
2023/01/31 04:18:27;;;;;;;43.47;22.17;;;;;;;2.46;100.00;102298.59;5037022;28;20473;-58
2023/01/31 04:20:52;;;;;;;42.95;22.73;;;;;;;2.40;100.00;102290.75;5053864;28;20053;-57
2023/01/31 04:23:18;;;;;;;39.00;22.23;;;;;;;2.38;100.00;102285.53;5054133;28;20115;-58
2023/01/31 04:25:44;;;;;;;47.83;22.40;;;;;;;2.37;100.00;102291.66;5035762;28;20464;-57
2023/01/31 04:28:09;;;;;;;47.07;22.53;;;;;;;2.32;100.00;102292.56;5053995;28;20037;-58
2023/01/31 04:30:35;;;;;;;46.00;23.50;;;;;;;2.35;100.00;102292.53;5036080;28;20033;-58
2023/01/31 04:33:00;;;;;;;44.83;23.25;;;;;;;2.36;100.00;102289.91;5053891;28;20025;-58
2023/01/31 04:35:25;;;;;;;44.53;22.67;;;;;;;2.27;100.00;102272.47;5053966;28;20021;-58
2023/01/31 04:37:51;;;;;;;46.17;22.13;;;;;;;2.33;100.00;102281.19;5035900;28;20025;-57
2023/01/31 04:40:16;;;;;;;41.45;21.85;;;;;;;2.34;100.00;102286.41;5035746;28;20077;-57
2023/01/31 04:42:42;;;;;;;48.53;21.98;;;;;;;2.36;100.00;102283.81;5057862;28;20366;-57
2023/01/31 04:45:08;;;;;;;44.55;22.83;;;;;;;2.26;100.00;102281.22;5059082;28;20040;-57
2023/01/31 04:47:33;;;;;;;51.30;23.45;;;;;;;2.25;100.00;102279.47;5036248;28;20112;-57
2023/01/31 04:49:58;;;;;;;46.13;22.83;;;;;;;2.25;100.00;102284.72;5035757;28;20028;-57
2023/01/31 04:52:24;;;;;;;47.23;23.27;;;;;;;2.24;100.00;102287.38;5053821;28;20130;-57
2023/01/31 04:54:49;;;;;;;43.50;21.90;;;;;;;2.17;100.00;102275.13;5035086;28;20024;-57
2023/01/31 04:57:15;;;;;;;44.83;22.97;;;;;;;2.22;100.00;102281.25;5035115;28;20033;-57
2023/01/31 04:59:40;;;;;;;45.23;23.70;;;;;;;2.18;100.00;102269.91;5036527;28;20025;-58
2023/01/31 05:02:05;;;;;;;44.55;22.98;;;;;;;2.21;100.00;102258.50;5073315;28;20113;-58
2023/01/31 05:04:31;;;;;;;46.07;22.87;;;;;;;2.21;100.00;102259.38;5054725;28;20408;-57
2023/01/31 05:06:56;;;;;;;39.35;22.88;;;;;;;2.13;100.00;102245.41;5055194;28;20098;-57
2023/01/31 05:09:23;;;;;;;42.70;22.73;;;;;;;2.22;100.00;102248.00;5037634;28;20124;-57
2023/01/31 05:11:49;;;;;;;38.43;22.37;;;;;;;2.26;100.00;102244.47;5052909;28;20025;-57
2023/01/31 05:14:19;;;;;;;46.90;24.63;;;;;;;2.28;100.00;102258.44;5034632;28;20040;-58
2023/01/31 05:16:46;;;;;;;40.63;20.90;;;;;;;2.36;100.00;102241.78;5060276;28;20476;-57
2023/01/31 05:19:13;;;;;;;45.80;21.57;;;;;;;2.27;100.00;102234.84;5043219;28;20028;-58
2023/01/31 05:21:53;;;;;;;46.85;20.83;;;;;;;2.34;100.00;102246.19;5034527;28;20513;-58
2023/01/31 05:24:23;;;;;;;42.35;21.42;;;;;;;2.31;100.00;102228.69;5066029;28;20451;-58
2023/01/31 05:26:50;;;;;;;43.50;21.55;;;;;;;2.38;100.00;102248.78;5061455;28;20269;-58
2023/01/31 05:29:16;;;;;;;38.20;20.98;;;;;;;2.39;100.00;102224.25;5052399;28;20055;-57
2023/01/31 05:31:42;;;;;;;36.73;21.90;;;;;;;2.40;100.00;102230.38;5052770;28;20017;-57
2023/01/31 05:34:09;;;;;;;51.03;22.73;;;;;;;2.43;100.00;102219.84;5052773;28;20473;-57
2023/01/31 05:36:34;;;;;;;43.08;23.27;;;;;;;2.42;100.00;102232.13;5052365;28;20414;-58
2023/01/31 05:38:59;;;;;;;38.67;22.48;;;;;;;2.39;100.00;102229.50;5052600;28;20013;-58
2023/01/31 05:41:25;;;;;;;43.75;22.80;;;;;;;2.38;100.00;102212.03;5034722;28;20116;-58
2023/01/31 05:43:50;;;;;;;45.10;22.92;;;;;;;2.45;100.00;102211.09;5052099;28;20477;-57
2023/01/31 05:46:16;;;;;;;39.42;20.67;;;;;;;2.44;100.00;102211.09;5051981;28;20029;-57
2023/01/31 05:48:41;;;;;;;34.28;21.42;;;;;;;2.34;100.00;102197.16;5034518;28;20469;-57
2023/01/31 05:51:06;;;;;;;40.90;22.00;;;;;;;2.41;100.00;102214.63;5036318;28;20078;-57
2023/01/31 05:53:32;;;;;;;41.22;21.17;;;;;;;2.45;100.00;102218.97;5034455;28;20029;-57
2023/01/31 05:55:57;;;;;;;39.78;20.80;;;;;;;2.45;100.00;102218.97;5051081;28;20032;-57
2023/01/31 05:58:25;;;;;;;43.88;21.23;;;;;;;2.47;100.00;102211.06;5051131;28;20060;-58
2023/01/31 06:00:54;;;;;;;38.13;20.33;;;;;;;2.48;100.00;102200.56;5063456;28;20016;-58
2023/01/31 06:03:20;;;;;;;42.45;21.40;;;;;;;2.46;100.00;102204.94;5063778;28;20497;-58
2023/01/31 06:05:45;;;;;;;43.50;20.27;;;;;;;2.48;100.00;102210.19;5051595;28;20056;-58
2023/01/31 06:08:11;;;;;;;41.67;19.63;;;;;;;2.50;100.00;102213.69;5051840;28;20850;-58
2023/01/31 06:10:37;;;;;;;39.35;19.02;;;;;;;2.45;100.00;102208.47;5032665;28;20075;-57
2023/01/31 06:13:02;;;;;;;40.75;19.58;;;;;;;2.54;100.00;102212.78;5034763;28;20117;-58
2023/01/31 06:15:27;;;;;;;41.25;19.65;;;;;;;2.48;100.00;102204.94;5052468;28;20389;-58
2023/01/31 06:17:53;;;;;;;40.13;18.58;;;;;;;2.59;100.00;102216.25;5051703;28;20031;-58
2023/01/31 06:20:18;;;;;;;41.72;19.38;;;;;;;2.65;100.00;102220.56;5033476;28;20130;-57
2023/01/31 06:22:43;;;;;;;35.30;18.73;;;;;;;2.64;100.00;102213.56;5052120;28;20056;-58
2023/01/31 06:25:09;;;;;;;38.15;18.67;;;;;;;2.58;100.00;102195.22;5033798;28;20028;-58
2023/01/31 06:27:35;;;;;;;39.10;19.45;;;;;;;2.67;100.00;102222.28;5033877;28;20076;-58
2023/01/31 06:30:00;;;;;;;38.17;19.10;;;;;;;2.66;100.00;102222.31;5051323;28;20493;-57
2023/01/31 06:32:26;;;;;;;38.20;19.15;;;;;;;2.68;100.00;102215.31;5034065;28;20025;-57
2023/01/31 06:34:53;;;;;;;31.83;17.77;;;;;;;2.67;100.00;102222.28;5034092;28;20086;-58
2023/01/31 06:37:19;;;;;;;33.28;17.50;;;;;;;2.69;99.78;102220.53;5051693;28;20029;-58
2023/01/31 06:39:44;;;;;;;37.97;18.13;;;;;;;2.69;100.00;102202.13;5052279;28;20036;-58
2023/01/31 06:42:10;;;;;;;34.65;17.65;;;;;;;2.72;100.00;102210.00;5053326;28;20473;-58
2023/01/31 06:44:36;;;;;;;31.98;17.35;;;;;;;2.78;99.60;102209.06;5051920;28;20033;-58
2023/01/31 06:47:02;;;;;;;33.20;17.17;;;;;;;2.75;100.00;102216.13;5051432;28;20024;-58
2023/01/31 06:49:27;;;;;;;36.67;18.83;;;;;;;2.76;99.86;102197.69;5033681;28;20418;-57
2023/01/31 06:51:53;;;;;;;36.15;18.13;;;;;;;2.79;99.66;102195.03;5034839;28;20076;-58
2023/01/31 06:54:18;;;;;;;33.70;17.77;;;;;;;2.81;99.55;102201.16;5051998;28;20052;-58
2023/01/31 06:56:43;;;;;;;30.90;17.42;;;;;;;2.85;99.96;102194.13;5051991;28;20036;-58
2023/01/31 06:59:09;;;;;;;30.88;18.63;;;;;;;2.83;99.32;102195.91;5054303;28;20078;-57
2023/01/31 07:01:34;;;;;;;34.15;17.17;;;;;;;2.91;99.13;102194.06;5073105;28;20039;-57
2023/01/31 07:04:00;;;;;;;36.30;17.65;;;;;;;2.83;100.00;102185.41;5057352;28;20020;-57
2023/01/31 07:06:25;;;;;;;36.38;18.40;;;;;;;2.80;99.04;102178.41;5070274;28;20121;-57
2023/01/31 07:08:51;;;;;;;34.28;18.15;;;;;;;2.86;99.62;102183.59;5045602;28;20025;-58
2023/01/31 07:11:16;;;;;;;40.70;17.08;;;;;;;2.90;99.90;102201.06;5054129;28;20440;-58
2023/01/31 07:13:46;;;;;;;39.78;16.83;;;;;;;2.92;99.33;102188.81;5054953;28;20029;-57
2023/01/31 07:16:11;;;;;;;;;;;;;;;2.96;99.57;102195.75;5055933;28;20104;-57
2023/01/31 07:18:37;;;;;;;31.00;16.77;;;;;;;2.96;99.59;102187.00;5054884;28;20008;-58
2023/01/31 07:21:02;;;;;;;32.40;17.13;;;;;;;2.97;99.94;102178.22;5034476;28;20045;-58
2023/01/31 07:23:28;;;;;;;37.22;17.60;;;;;;;3.08;99.27;102184.25;5034153;28;20026;-58
2023/01/31 07:25:53;;;;;;;34.15;18.45;;;;;;;3.03;99.44;102172.94;5033960;28;20030;-58
2023/01/31 07:28:19;;;;;;;26.90;16.85;;;;;;;3.06;99.54;102178.16;5052645;28;20025;-58
2023/01/31 07:30:47;;;;;;;33.35;16.60;;;;;;;3.13;98.61;102173.69;5049840;28;20025;-58
2023/01/31 07:33:13;;;;;;;39.10;17.35;;;;;;;3.15;99.28;102175.44;5034525;28;20124;-58
2023/01/31 07:35:40;;;;;;;35.15;16.45;;;;;;;3.22;98.67;102175.34;5034322;28;20501;-58
2023/01/31 07:38:05;;;;;;;36.97;16.27;;;;;;;3.23;98.88;102175.31;5033498;28;20026;-58
2023/01/31 07:40:31;;;;;;;30.00;15.57;;;;;;;3.24;98.71;102173.59;5033423;28;20055;-58
2023/01/31 07:42:58;;;;;;;35.60;15.93;;;;;;;3.29;98.31;102170.00;5033266;28;20497;-58
2023/01/31 07:45:23;;;;;;;31.52;15.18;;;;;;;3.33;97.47;102160.34;5049525;28;20029;-58
2023/01/31 07:47:48;;;;;;;33.67;15.15;;;;;;;3.37;97.44;102165.53;5035655;28;20025;-58
2023/01/31 07:50:14;;;;;;;28.92;15.20;;;;;;;3.32;97.69;102162.06;5035009;28;20026;-58
2023/01/31 07:52:39;;;;;;;32.28;16.10;;;;;;;3.35;97.74;102155.91;5035459;28;20478;-58
2023/01/31 07:55:05;;;;;;;35.05;16.00;;;;;;;3.32;98.06;102158.56;5034576;28;20052;-58
2023/01/31 07:57:31;;;;;;;31.27;16.17;;;;;;;3.37;98.16;102149.75;5040161;28;20022;-58
2023/01/31 07:59:56;;;;;;;30.45;15.48;;;;;;;3.44;97.69;102154.94;5033337;28;20022;-58
2023/01/31 08:05:07;;;;;;;29.25;16.50;;;;;;;3.41;97.89;102154.09;5034304;28;20044;-58
2023/01/31 08:07:32;;;;;;;35.47;15.40;;;;;;;3.40;97.75;102135.69;5042938;28;20115;-58
2023/01/31 08:09:58;;;;;;;28.33;15.18;;;;;;;3.50;96.88;102145.22;5034049;28;20068;-57
2023/01/31 08:12:26;;;;;;;32.42;15.23;;;;;;;3.49;97.06;102151.34;5032141;28;20025;-58
2023/01/31 08:14:51;;;;;;;26.83;15.18;;;;;;;3.49;97.36;102132.94;5041833;28;20041;-58
2023/01/31 08:17:17;;;;;;;35.25;15.88;;;;;;;3.51;96.87;102136.44;5046784;28;20487;-58
2023/01/31 08:19:42;;;;;;;32.33;15.98;;;;;;;3.54;96.92;102139.03;5047512;28;20484;-58
2023/01/31 08:22:10;;;;;;;27.13;14.85;;;;;;;3.54;96.96;102141.66;5042911;28;20060;-58
2023/01/31 08:24:36;;;;;;;30.02;15.90;;;;;;;3.56;97.49;102136.34;5046344;28;20032;-58
2023/01/31 08:27:01;;;;;;;31.02;15.00;;;;;;;3.60;96.58;102130.19;5037258;28;20029;-58
2023/01/31 08:29:27;;;;;;;30.85;14.68;;;;;;;3.66;97.11;102137.13;5035230;28;20030;-58
2023/01/31 08:31:52;;;;;;;24.73;14.85;;;;;;;3.64;96.58;102123.97;5040124;28;20052;-58
2023/01/31 08:34:18;;;;;;;28.48;14.15;;;;;;;3.70;96.74;102121.25;5053001;28;20017;-58
2023/01/31 08:36:44;;;;;;;32.83;15.60;;;;;;;3.70;96.57;102105.47;5053122;28;20025;-58
2023/01/31 08:39:09;;;;;;;26.80;14.57;;;;;;;3.66;97.34;102102.94;5052897;28;20090;-58
2023/01/31 08:41:37;;;;;;;28.52;13.60;;;;;;;3.77;96.37;102117.66;5048443;28;20083;-59
2023/01/31 08:44:04;;;;;;;28.33;14.52;;;;;;;3.81;96.97;102111.47;5052192;28;20029;-58
2023/01/31 08:46:32;;;;;;;29.95;13.35;;;;;;;3.82;96.45;102092.16;5050861;28;20025;-58
2023/01/31 08:49:00;;;;;;;31.08;14.40;;;;;;;3.94;95.86;102106.00;5052839;28;20405;-58
2023/01/31 08:51:25;;;;;;;30.40;13.80;;;;;;;3.92;96.02;102106.03;5048897;28;20052;-58
2023/01/31 08:53:51;;;;;;;28.35;14.07;;;;;;;3.94;95.72;102108.63;5055405;28;20048;-58
2023/01/31 08:56:18;;;;;;;27.02;13.95;;;;;;;3.94;96.18;102099.00;5055825;28;20074;-58
2023/01/31 08:58:43;;;;;;;25.13;13.65;;;;;;;4.00;95.87;102103.28;5052116;28;20112;-58
2023/01/31 09:01:12;;;;;;;28.27;14.25;;;;;;;4.02;96.47;102088.34;5054374;28;20119;-58
2023/01/31 09:03:38;;;;;;;26.92;13.45;;;;;;;4.08;95.95;102081.19;5051923;28;20500;-58
2023/01/31 09:06:07;;;;;;;27.15;13.38;;;;;;;4.08;96.58;102091.72;5049406;28;20053;-58
2023/01/31 09:08:33;;;;;;;25.25;13.48;;;;;;;4.17;95.78;102085.44;5052626;28;20118;-58
2023/01/31 09:11:02;;;;;;;28.55;13.40;;;;;;;4.17;96.54;102088.09;5041891;28;20033;-58
2023/01/31 09:13:29;;;;;;;28.67;14.25;;;;;;;4.23;96.22;102093.25;5035250;28;20037;-58
2023/01/31 09:16:08;;;;;;;27.10;12.48;;;;;;;4.25;96.57;102080.06;5045227;28;20037;-58
2023/01/31 09:18:35;;;;;;;22.20;12.93;;;;;;;4.19;96.87;102083.66;5041727;28;20036;-58
2023/01/31 09:21:14;;;;;;;29.23;13.25;;;;;;;4.30;96.83;102076.47;5041668;28;20497;-58
2023/01/31 09:23:40;;;;;;;29.48;12.88;;;;;;;4.27;95.66;102073.03;5052635;28;20025;-58
2023/01/31 09:26:06;;;;;;;26.77;12.88;;;;;;;4.41;95.83;102086.81;5064948;28;20107;-58
2023/01/31 09:28:32;;;;;;;27.70;12.25;;;;;;;4.43;96.15;102070.97;5071374;28;20119;-58
2023/01/31 09:31:06;;;;;;;24.05;12.50;;;;;;;4.55;96.42;102076.03;5072119;28;20104;-58
2023/01/31 09:33:33;;;;;;;29.10;13.18;;;;;;;4.63;95.18;102063.59;5072052;28;20032;-58
2023/01/31 09:36:01;;;;;;;29.38;12.65;;;;;;;4.70;95.22;102057.28;5077384;28;20028;-58
2023/01/31 09:38:27;;;;;;;28.08;11.75;;;;;;;4.82;94.37;102060.59;5053466;28;20028;-58
2023/01/31 09:40:55;;;;;;;25.27;12.45;;;;;;;4.85;94.54;102060.53;5068416;28;20028;-58
2023/01/31 09:43:25;;;;;;;28.23;12.02;;;;;;;4.88;94.75;102055.19;5071393;28;20436;-58
2023/01/31 09:45:55;;;;;;;25.38;12.73;;;;;;;5.00;94.74;102060.25;5051553;28;20037;-58
2023/01/31 09:48:27;;;;;;;27.83;13.00;;;;;;;5.09;93.21;102070.59;5042487;28;20107;-57
2023/01/31 09:50:54;;;;;;;22.77;11.90;;;;;;;5.14;93.95;102065.22;5068023;28;20603;-58
2023/01/31 09:53:22;;;;;;;22.20;11.85;;;;;;;5.27;94.06;102056.16;5054004;28;20048;-58
2023/01/31 09:56:00;;;;;;;26.88;12.85;;;;;;;5.47;92.58;102056.59;5071649;28;20107;-59
2023/01/31 09:58:50;;;;;;;22.80;11.52;;;;;;;5.54;91.89;102059.94;5061652;28;20033;-58
2023/01/31 10:01:28;;;;;;;22.52;11.43;;;;;;;5.70;91.91;102055.16;5062075;28;20024;-58
2023/01/31 10:04:41;;;;;;;27.55;11.10;;;;;;;5.85;91.57;102062.75;5062644;28;20035;-58
2023/01/31 10:07:27;;;;;;;27.25;12.07;;;;;;;5.64;91.44;102057.97;5048314;28;20036;-58
2023/01/31 10:09:54;;;;;;;27.00;12.07;;;;;;;5.58;91.78;102072.16;5065298;28;20036;-58
2023/01/31 10:12:39;;;;;;;28.85;11.90;;;;;;;5.57;92.17;102072.22;5071142;28;20035;-58
2023/01/31 10:15:22;;;;;;;23.65;12.27;;;;;;;5.48;92.94;102065.38;5062939;28;20143;-58
2023/01/31 10:17:54;;;;;;;23.58;12.88;;;;;;;5.41;92.82;102069.03;5069179;28;20024;-58
2023/01/31 10:20:20;;;;;;;23.95;12.75;;;;;;;5.43;93.24;102064.59;5075308;28;20545;-57
2023/01/31 10:22:56;;;;;;;22.73;13.02;;;;;;;5.41;93.62;102055.81;5082263;28;20480;-58
2023/01/31 10:25:46;;;;;;;23.13;12.93;;;;;;;5.63;93.45;102027.19;5071191;28;20036;-58
2023/01/31 10:28:27;;;;;;;27.17;13.18;;;;;;;5.44;94.08;102043.47;5068812;28;20036;-58
2023/01/31 10:31:06;;;;;;;26.30;13.10;;;;;;;5.44;94.02;102046.09;5072642;28;20073;-58
2023/01/31 10:33:37;;;;;;;26.25;13.88;;;;;;;5.39;94.78;102047.97;5070664;28;20024;-58
2023/01/31 10:36:14;;;;;;;31.48;15.38;;;;;;;5.41;94.57;102062.00;5055796;28;20024;-58
2023/01/31 10:38:56;;;;;;;25.83;15.98;;;;;;;5.30;94.80;102063.13;5060076;28;20029;-58
2023/01/31 10:41:33;;;;;;;27.90;15.88;;;;;;;5.37;95.57;102062.94;5067376;28;20107;-58
2023/01/31 10:44:04;;;;;;;33.85;19.20;;;;;;;5.39;95.54;102070.84;5048351;28;20031;-59
2023/01/31 10:46:30;;;;;;;34.90;19.42;;;;;;;5.44;95.90;102067.22;5052085;28;20028;-59
2023/01/31 10:48:55;;;;;;;33.70;19.40;;;;;;;5.51;96.19;102038.91;5070242;28;20025;-58
2023/01/31 10:51:55;;;;;;;30.52;20.38;;;;;;;5.72;95.32;102045.47;5050626;28;20021;-58
2023/01/31 10:55:02;;;;;;;32.45;20.33;;;;;;;5.81;94.30;102041.72;5069401;28;20036;-58
2023/01/31 10:57:28;;;;;;;41.63;21.73;;;;;;;5.66;94.52;102024.50;5057264;28;20077;-58
2023/01/31 10:59:54;;;;;;;32.55;19.58;;;;;;;5.73;94.65;102023.41;5070061;28;20033;-58
2023/01/31 11:02:23;;;;;;;34.97;20.75;;;;;;;5.63;94.93;102037.75;5070768;28;20484;-58
2023/01/31 11:04:51;;;;;;;36.45;21.13;;;;;;;5.71;94.84;102030.53;5063807;28;20033;-58
2023/01/31 11:07:18;;;;;;;29.98;20.80;;;;;;;5.71;95.64;102025.25;5070894;28;20021;-58
2023/01/31 11:09:52;;;;;;;31.98;20.73;;;;;;;5.78;95.32;102033.88;5070388;28;20020;-58
2023/01/31 11:12:19;;;;;;;28.88;19.38;;;;;;;5.72;94.88;102028.75;5070303;28;20028;-58
2023/01/31 11:14:44;;;;;;;33.80;21.25;;;;;;;5.78;94.76;102021.56;5048995;28;20158;-58
2023/01/31 11:17:23;;;;;;;29.85;19.85;;;;;;;5.80;94.76;101995.13;5051837;28;20029;-59
2023/01/31 11:19:54;;;;;;;26.35;20.10;;;;;;;5.89;94.61;102008.97;5038385;28;20098;-58
2023/01/31 11:22:29;;;;;;;30.35;19.73;;;;;;;5.96;95.03;102009.69;5061346;28;20396;-58
2023/01/31 11:24:57;;;;;;;30.45;19.48;;;;;;;6.01;94.46;101999.03;5060818;28;20119;-58
2023/01/31 11:27:26;;;;;;;34.30;20.00;;;;;;;6.04;94.27;101994.53;5033339;28;20033;-58
2023/01/31 11:29:54;;;;;;;29.52;17.48;;;;;;;6.09;94.01;101976.81;5050453;28;20025;-58
2023/01/31 11:32:29;;;;;;;31.42;19.20;;;;;;;6.16;93.80;101997.78;5066401;28;20103;-59
2023/01/31 11:34:55;;;;;;;36.05;19.08;;;;;;;6.28;93.79;101995.66;5052210;28;20086;-58
2023/01/31 11:37:20;;;;;;;27.05;18.17;;;;;;;6.26;93.22;101988.69;5050923;28;20017;-58